createdAt,value
2022-11-29T00:00:24.643Z,8.90
2022-11-29T00:01:24.618Z,11.00
2022-11-29T00:02:24.866Z,8.40
2022-11-29T00:03:24.672Z,8.50
2022-11-29T00:04:24.614Z,8.30
2022-11-29T00:05:24.580Z,9.30
2022-11-29T00:06:24.584Z,7.90
2022-11-29T00:07:24.610Z,9.20
2022-11-29T00:08:24.565Z,7.70
2022-11-29T00:09:24.611Z,8.70
2022-11-29T00:10:24.557Z,8.40
2022-11-29T00:11:24.540Z,8.70
2022-11-29T00:12:24.514Z,11.00
2022-11-29T00:13:24.495Z,8.30
2022-11-29T00:14:24.489Z,8.00
2022-11-29T00:15:24.500Z,7.90
2022-11-29T00:16:24.520Z,6.90
2022-11-29T00:17:24.462Z,10.90
2022-11-29T00:18:24.490Z,9.80
2022-11-29T00:19:24.436Z,10.30
2022-11-29T00:20:24.427Z,10.90
2022-11-29T00:21:24.421Z,8.70
2022-11-29T00:22:24.406Z,9.10
2022-11-29T00:23:24.393Z,8.70
2022-11-29T00:24:24.394Z,12.00
2022-11-29T00:25:24.361Z,9.80
2022-11-29T00:26:24.346Z,10.90
2022-11-29T00:27:24.368Z,11.10
2022-11-29T00:28:24.361Z,14.30
2022-11-29T00:29:24.329Z,11.90
2022-11-29T00:30:24.371Z,12.80
2022-11-29T00:31:24.308Z,9.30
2022-11-29T00:32:24.305Z,10.10
2022-11-29T00:33:24.294Z,12.10
2022-11-29T00:34:24.330Z,11.70
2022-11-29T00:35:24.269Z,13.20
2022-11-29T00:36:24.242Z,12.00
2022-11-29T00:37:24.233Z,11.80
2022-11-29T00:38:24.236Z,12.60
2022-11-29T00:39:24.208Z,12.80
2022-11-29T00:40:24.205Z,13.70
2022-11-29T00:41:24.204Z,12.80
2022-11-29T00:42:24.176Z,13.50
2022-11-29T00:43:24.177Z,14.00
2022-11-29T00:44:24.164Z,14.40
2022-11-29T00:45:24.142Z,13.00
2022-11-29T00:46:24.199Z,12.30
2022-11-29T00:47:24.124Z,10.70
2022-11-29T00:48:24.123Z,14.80
2022-11-29T00:49:24.102Z,15.80
2022-11-29T00:50:24.127Z,13.90
2022-11-29T00:51:24.075Z,12.60
2022-11-29T00:52:24.065Z,11.10
2022-11-29T00:53:24.085Z,12.90
2022-11-29T00:54:24.067Z,12.50
2022-11-29T00:55:24.045Z,13.60
2022-11-29T00:56:24.044Z,13.80
2022-11-29T00:57:24.016Z,11.40
2022-11-29T00:58:24.015Z,13.80
2022-11-29T00:59:23.990Z,17.00
2022-11-29T01:00:23.993Z,15.80
2022-11-29T01:01:24.118Z,12.50
2022-11-29T01:02:24.055Z,14.60
2022-11-29T01:03:23.957Z,13.50
2022-11-29T01:04:23.948Z,14.10
2022-11-29T01:05:23.939Z,12.90
2022-11-29T01:06:23.955Z,15.60
2022-11-29T01:07:23.997Z,12.10
2022-11-29T01:08:23.924Z,14.40
2022-11-29T01:09:23.891Z,14.90
2022-11-29T01:10:23.881Z,14.00
2022-11-29T01:11:23.874Z,13.70
2022-11-29T01:12:23.861Z,14.00
2022-11-29T01:13:23.850Z,13.90
2022-11-29T01:14:23.845Z,16.40
2022-11-29T01:15:23.813Z,13.90
2022-11-29T01:16:23.859Z,14.80
2022-11-29T01:17:23.816Z,11.40
2022-11-29T01:18:23.795Z,14.30
2022-11-29T01:19:23.778Z,13.90
2022-11-29T01:20:23.779Z,15.40
2022-11-29T01:21:23.778Z,12.10
2022-11-29T01:22:23.782Z,13.40
2022-11-29T01:23:23.739Z,12.80
2022-11-29T01:24:23.740Z,14.50
2022-11-29T01:25:23.723Z,13.80
2022-11-29T01:26:23.694Z,17.90
2022-11-29T01:27:23.713Z,13.30
2022-11-29T01:28:23.681Z,14.40
2022-11-29T01:29:23.682Z,11.80
2022-11-29T01:30:23.664Z,12.70
2022-11-29T01:31:23.657Z,12.80
2022-11-29T01:32:23.633Z,14.50
2022-11-29T01:33:23.635Z,14.20
2022-11-29T01:34:23.622Z,15.40
2022-11-29T01:35:23.615Z,15.00
2022-11-29T01:36:23.595Z,17.90
2022-11-29T01:37:23.580Z,15.60
2022-11-29T01:38:23.590Z,16.40
2022-11-29T01:39:23.552Z,12.00
2022-11-29T01:40:23.558Z,11.50
2022-11-29T01:41:23.543Z,12.70
2022-11-29T01:42:23.546Z,13.00
2022-11-29T01:43:23.526Z,15.30
2022-11-29T01:44:23.560Z,12.20
2022-11-29T01:45:23.500Z,11.90
2022-11-29T01:46:23.579Z,9.60
2022-11-29T01:47:23.492Z,12.80
2022-11-29T01:48:23.466Z,11.80
2022-11-29T01:49:23.472Z,11.40
2022-11-29T01:50:23.444Z,14.60
2022-11-29T01:51:23.422Z,16.00
2022-11-29T01:52:23.425Z,12.00
2022-11-29T01:53:23.432Z,13.80
2022-11-29T01:54:23.440Z,11.60
2022-11-29T01:55:23.382Z,12.40
2022-11-29T01:56:23.381Z,15.30
2022-11-29T01:57:23.384Z,13.20
2022-11-29T01:58:23.362Z,13.20
2022-11-29T01:59:23.351Z,10.80
2022-11-29T02:00:23.328Z,11.10
2022-11-29T02:01:23.454Z,13.00
2022-11-29T02:02:23.391Z,14.70
2022-11-29T02:03:23.307Z,13.70
2022-11-29T02:04:23.297Z,11.40
2022-11-29T02:05:23.294Z,13.00
2022-11-29T02:06:23.261Z,12.20
2022-11-29T02:07:23.287Z,10.50
2022-11-29T02:08:23.268Z,13.00
2022-11-29T02:09:23.255Z,12.80
2022-11-29T02:10:23.267Z,12.60
2022-11-29T02:11:23.226Z,10.80
2022-11-29T02:12:23.229Z,11.80
2022-11-29T02:13:23.199Z,10.20
2022-11-29T02:14:23.172Z,10.50
2022-11-29T02:15:23.160Z,10.30
2022-11-29T02:16:23.161Z,13.00
2022-11-29T02:17:23.158Z,11.10
2022-11-29T02:18:23.157Z,13.50
2022-11-29T02:19:23.134Z,11.70
2022-11-29T02:20:23.110Z,9.80
2022-11-29T02:21:23.108Z,11.10
2022-11-29T02:22:23.099Z,9.40
2022-11-29T02:23:23.086Z,12.10
2022-11-29T02:24:23.080Z,9.30
2022-11-29T02:25:23.054Z,8.70
2022-11-29T02:26:23.075Z,9.00
2022-11-29T02:27:23.036Z,12.10
2022-11-29T02:28:23.023Z,11.80
2022-11-29T02:29:23.029Z,9.70
2022-11-29T02:30:23.003Z,8.90
2022-11-29T02:31:23.003Z,10.80
2022-11-29T02:32:22.988Z,7.30
2022-11-29T02:33:22.965Z,8.50
2022-11-29T02:34:22.959Z,7.30
2022-11-29T02:35:22.976Z,7.70
2022-11-29T02:36:22.938Z,5.90
2022-11-29T02:37:22.933Z,8.60
2022-11-29T02:38:22.911Z,8.60
2022-11-29T02:39:22.913Z,9.20
2022-11-29T02:40:22.906Z,8.00
2022-11-29T02:41:22.892Z,7.20
2022-11-29T02:42:22.910Z,8.30
2022-11-29T02:43:22.880Z,12.50
2022-11-29T02:44:22.855Z,10.20
2022-11-29T02:45:22.848Z,7.20
2022-11-29T02:46:22.889Z,8.40
2022-11-29T02:47:22.813Z,11.50
2022-11-29T02:48:22.827Z,13.40
2022-11-29T02:49:22.796Z,11.00
2022-11-29T02:50:22.793Z,10.70
2022-11-29T02:51:22.792Z,9.70
2022-11-29T02:52:22.763Z,10.40
2022-11-29T02:53:22.772Z,8.00
2022-11-29T02:54:22.744Z,8.60
2022-11-29T02:55:22.730Z,10.20
2022-11-29T02:56:22.715Z,9.00
2022-11-29T02:57:22.736Z,10.10
2022-11-29T02:58:22.723Z,10.90
2022-11-29T02:59:22.686Z,9.90
2022-11-29T03:00:22.687Z,8.90
2022-11-29T03:01:22.778Z,10.20
2022-11-29T03:02:22.692Z,10.80
2022-11-29T03:03:22.656Z,8.70
2022-11-29T03:04:22.643Z,10.80
2022-11-29T03:05:22.623Z,11.00
2022-11-29T03:06:22.625Z,10.30
2022-11-29T03:07:22.637Z,8.70
2022-11-29T03:08:22.585Z,9.10
2022-11-29T03:09:22.606Z,8.30
2022-11-29T03:10:22.577Z,10.50
2022-11-29T03:11:22.551Z,9.00
2022-11-29T03:12:22.568Z,7.30
2022-11-29T03:13:22.534Z,10.00
2022-11-29T03:14:22.557Z,8.20
2022-11-29T03:15:22.542Z,8.40
2022-11-29T03:16:22.508Z,8.50
2022-11-29T03:17:22.485Z,12.20
2022-11-29T03:18:22.491Z,10.40
2022-11-29T03:19:22.471Z,8.00
2022-11-29T03:20:22.465Z,9.40
2022-11-29T03:21:22.465Z,6.40
2022-11-29T03:22:22.449Z,8.50
2022-11-29T03:23:22.423Z,9.40
2022-11-29T03:24:22.408Z,7.70
2022-11-29T03:25:22.409Z,8.70
2022-11-29T03:26:22.475Z,8.40
2022-11-29T03:27:22.384Z,7.90
2022-11-29T03:28:22.372Z,8.00
2022-11-29T03:29:22.392Z,8.10
2022-11-29T03:30:22.365Z,7.90
2022-11-29T03:31:22.411Z,8.50
2022-11-29T03:32:22.340Z,9.20
2022-11-29T03:33:22.309Z,8.20
2022-11-29T03:34:22.311Z,7.60
2022-11-29T03:35:22.323Z,7.60
2022-11-29T03:36:22.295Z,9.50
2022-11-29T03:37:22.296Z,7.20
2022-11-29T03:38:22.257Z,7.10
2022-11-29T03:39:22.263Z,6.50
2022-11-29T03:40:22.243Z,7.20
2022-11-29T03:41:22.252Z,6.00
2022-11-29T03:42:22.218Z,7.10
2022-11-29T03:43:22.212Z,6.20
2022-11-29T03:44:22.199Z,8.40
2022-11-29T03:45:22.199Z,8.10
2022-11-29T03:46:22.262Z,6.80
2022-11-29T03:47:22.181Z,6.70
2022-11-29T03:48:22.187Z,5.70
2022-11-29T03:49:22.163Z,7.40
2022-11-29T03:50:22.152Z,7.30
2022-11-29T03:51:22.118Z,8.40
2022-11-29T03:52:22.108Z,7.70
2022-11-29T03:53:22.093Z,7.10
2022-11-29T03:54:22.115Z,6.70
2022-11-29T03:55:22.099Z,7.90
2022-11-29T03:56:22.072Z,7.10
2022-11-29T03:57:22.054Z,6.20
2022-11-29T03:58:22.048Z,7.50
2022-11-29T03:59:22.050Z,6.80
2022-11-29T04:00:22.027Z,9.40
2022-11-29T04:01:22.096Z,8.20
2022-11-29T04:02:22.102Z,6.60
2022-11-29T04:03:22.006Z,10.50
2022-11-29T04:04:22.010Z,10.00
2022-11-29T04:05:21.995Z,7.20
2022-11-29T04:06:21.967Z,7.30
2022-11-29T04:07:22.068Z,9.30
2022-11-29T04:08:21.940Z,7.10
2022-11-29T04:09:21.918Z,8.00
2022-11-29T04:10:21.912Z,7.10
2022-11-29T04:11:21.938Z,7.70
2022-11-29T04:12:21.892Z,7.70
2022-11-29T04:13:21.893Z,7.80
2022-11-29T04:14:21.868Z,10.20
2022-11-29T04:15:21.868Z,7.00
2022-11-29T04:16:21.994Z,5.60
2022-11-29T04:17:21.854Z,9.30
2022-11-29T04:18:21.864Z,9.20
2022-11-29T04:19:21.814Z,6.90
2022-11-29T04:20:21.815Z,6.00
2022-11-29T04:21:21.821Z,6.50
2022-11-29T04:22:21.783Z,6.70
2022-11-29T04:23:21.769Z,6.40
2022-11-29T04:24:21.767Z,6.60
2022-11-29T04:25:21.744Z,9.40
2022-11-29T04:26:21.744Z,6.70
2022-11-29T04:27:21.745Z,6.60
2022-11-29T04:28:21.719Z,7.60
2022-11-29T04:29:21.721Z,6.80
2022-11-29T04:30:21.688Z,7.20
2022-11-29T04:31:21.762Z,8.40
2022-11-29T04:32:21.686Z,7.20
2022-11-29T04:33:21.675Z,6.80
2022-11-29T04:34:21.697Z,6.50
2022-11-29T04:35:21.638Z,6.10
2022-11-29T04:36:21.648Z,6.10
2022-11-29T04:37:21.627Z,5.80
2022-11-29T04:38:21.609Z,7.30
2022-11-29T04:39:21.592Z,7.50
2022-11-29T04:40:21.589Z,8.40
2022-11-29T04:41:21.598Z,7.60
2022-11-29T04:42:21.560Z,6.40
2022-11-29T04:43:21.547Z,12.10
2022-11-29T04:44:21.536Z,7.70
2022-11-29T04:45:21.553Z,9.90
2022-11-29T04:46:21.576Z,10.60
2022-11-29T04:47:21.526Z,7.10
2022-11-29T04:48:21.506Z,9.90
2022-11-29T04:49:21.500Z,8.50
2022-11-29T04:50:21.513Z,8.40
2022-11-29T04:51:21.502Z,9.10
2022-11-29T04:52:21.462Z,11.10
2022-11-29T04:53:21.441Z,11.30
2022-11-29T04:54:21.445Z,10.50
2022-11-29T04:55:29.298Z,11.50
2022-11-29T04:56:22.416Z,11.40
2022-11-29T04:57:21.409Z,15.70
2022-11-29T04:58:21.382Z,14.80
2022-11-29T04:59:21.373Z,18.90
2022-11-29T05:00:21.378Z,12.60
2022-11-29T05:01:21.474Z,14.80
2022-11-29T05:02:21.421Z,14.10
2022-11-29T05:03:21.352Z,10.70
2022-11-29T05:04:21.338Z,11.30
2022-11-29T05:05:21.322Z,15.00
2022-11-29T05:06:21.341Z,11.50
2022-11-29T05:07:21.365Z,12.40
2022-11-29T05:08:21.299Z,14.80
2022-11-29T05:09:21.266Z,12.20
2022-11-29T05:10:21.255Z,11.20
2022-11-29T05:11:26.511Z,11.30
2022-11-29T05:12:22.237Z,13.80
2022-11-29T05:13:21.260Z,11.10
2022-11-29T05:14:21.219Z,10.90
2022-11-29T05:15:21.202Z,7.80
2022-11-29T05:16:21.233Z,16.30
2022-11-29T05:17:21.197Z,8.30
2022-11-29T05:18:21.164Z,7.50
2022-11-29T05:19:21.180Z,6.30
2022-11-29T05:20:21.149Z,10.30
2022-11-29T05:21:21.152Z,12.60
2022-11-29T05:22:21.150Z,8.90
2022-11-29T05:23:21.122Z,10.40
2022-11-29T05:24:21.103Z,9.80
2022-11-29T05:25:21.095Z,8.50
2022-11-29T05:26:21.094Z,10.70
2022-11-29T05:27:21.100Z,9.40
2022-11-29T05:28:21.059Z,11.40
2022-11-29T05:29:21.067Z,11.80
2022-11-29T05:30:21.070Z,7.60
2022-11-29T05:31:21.122Z,9.00
2022-11-29T05:32:21.048Z,9.80
2022-11-29T05:33:21.013Z,8.30
2022-11-29T05:34:20.994Z,7.00
2022-11-29T05:35:20.980Z,11.60
2022-11-29T05:36:20.990Z,18.30
2022-11-29T05:37:20.973Z,15.30
2022-11-29T05:38:20.994Z,14.60
2022-11-29T05:39:20.949Z,13.10
2022-11-29T05:40:20.943Z,12.90
2022-11-29T05:41:20.924Z,14.40
2022-11-29T05:42:20.919Z,13.40
2022-11-29T05:43:20.900Z,14.80
2022-11-29T05:44:20.904Z,14.10
2022-11-29T05:45:20.888Z,11.70
2022-11-29T05:46:20.947Z,12.60
2022-11-29T05:47:20.858Z,11.90
2022-11-29T05:48:20.846Z,13.70
2022-11-29T05:49:20.866Z,12.20
2022-11-29T05:50:20.847Z,17.00
2022-11-29T05:51:20.832Z,13.00
2022-11-29T05:52:20.811Z,13.30
2022-11-29T05:53:20.787Z,15.00
2022-11-29T05:54:20.833Z,14.60
2022-11-29T05:55:20.783Z,12.70
2022-11-29T05:56:20.751Z,17.20
2022-11-29T05:57:20.820Z,21.10
2022-11-29T05:58:23.393Z,15.30
2022-11-29T05:59:21.715Z,18.10
2022-11-29T06:00:20.711Z,16.80
2022-11-29T06:01:20.748Z,19.10
2022-11-29T06:02:20.770Z,16.00
2022-11-29T06:03:20.741Z,15.80
2022-11-29T06:04:20.697Z,18.30
2022-11-29T06:05:20.665Z,16.20
2022-11-29T06:06:20.682Z,18.80
2022-11-29T06:07:20.731Z,16.80
2022-11-29T06:08:20.634Z,18.80
2022-11-29T06:09:20.611Z,18.30
2022-11-29T06:10:20.687Z,24.30
2022-11-29T06:11:20.619Z,18.90
2022-11-29T06:12:21.405Z,16.20
2022-11-29T06:13:20.577Z,17.70
2022-11-29T06:14:20.567Z,21.50
2022-11-29T06:15:20.547Z,20.20
2022-11-29T06:16:20.609Z,23.40
2022-11-29T06:17:20.526Z,26.20
2022-11-29T06:18:20.533Z,18.10
2022-11-29T06:19:20.518Z,18.30
2022-11-29T06:20:20.523Z,24.90
2022-11-29T06:21:20.496Z,20.60
2022-11-29T06:22:20.573Z,20.90
2022-11-29T06:23:20.489Z,24.90
2022-11-29T06:24:25.532Z,18.30
2022-11-29T06:25:21.448Z,20.30
2022-11-29T06:26:20.479Z,20.60
2022-11-29T06:27:20.432Z,17.40
2022-11-29T06:28:20.428Z,20.50
2022-11-29T06:29:20.442Z,24.60
2022-11-29T06:30:20.422Z,23.20
2022-11-29T06:31:20.423Z,21.90
2022-11-29T06:32:20.374Z,20.00
2022-11-29T06:33:20.404Z,24.70
2022-11-29T06:34:20.345Z,24.00
2022-11-29T06:35:20.355Z,25.50
2022-11-29T06:36:20.352Z,26.80
2022-11-29T06:37:20.303Z,29.70
2022-11-29T06:38:20.298Z,26.30
2022-11-29T06:39:20.312Z,20.40
2022-11-29T06:40:20.299Z,26.00
2022-11-29T06:41:20.312Z,19.90
2022-11-29T06:42:20.277Z,19.80
2022-11-29T06:43:20.247Z,23.40
2022-11-29T06:44:20.283Z,23.50
2022-11-29T06:45:20.238Z,22.10
2022-11-29T06:46:20.303Z,20.60
2022-11-29T06:47:20.224Z,23.90
2022-11-29T06:48:20.225Z,26.30
2022-11-29T06:49:20.203Z,22.10
2022-11-29T06:50:20.226Z,24.10
2022-11-29T06:51:20.154Z,26.50
2022-11-29T06:52:20.160Z,21.00
2022-11-29T06:53:20.182Z,22.40
2022-11-29T06:54:20.137Z,25.90
2022-11-29T06:55:20.127Z,21.70
2022-11-29T06:56:20.114Z,28.00
2022-11-29T06:57:20.091Z,28.80
2022-11-29T06:58:20.132Z,27.30
2022-11-29T06:59:20.132Z,27.60
2022-11-29T07:00:20.074Z,27.20
2022-11-29T07:01:20.135Z,22.80
2022-11-29T07:02:20.079Z,25.40
2022-11-29T07:03:20.052Z,23.80
2022-11-29T07:04:20.030Z,27.30
2022-11-29T07:05:20.526Z,30.60
2022-11-29T07:06:20.007Z,22.90
2022-11-29T07:07:20.037Z,28.20
2022-11-29T07:08:19.978Z,20.00
2022-11-29T07:09:20.023Z,26.10
2022-11-29T07:10:20.064Z,25.80
2022-11-29T07:11:19.936Z,25.40
2022-11-29T07:12:19.965Z,27.40
2022-11-29T07:13:19.923Z,23.70
2022-11-29T07:14:19.943Z,22.90
2022-11-29T07:15:19.919Z,27.20
2022-11-29T07:16:19.963Z,22.80
2022-11-29T07:17:19.883Z,27.50
2022-11-29T07:18:19.890Z,22.40
2022-11-29T07:19:19.852Z,26.70
2022-11-29T07:20:19.866Z,26.00
2022-11-29T07:21:19.839Z,23.70
2022-11-29T07:22:19.840Z,22.10
2022-11-29T07:23:19.945Z,25.60
2022-11-29T07:24:19.812Z,22.10
2022-11-29T07:25:19.799Z,22.10
2022-11-29T07:26:19.775Z,24.40
2022-11-29T07:27:19.824Z,21.00
2022-11-29T07:28:19.754Z,24.50
2022-11-29T07:29:19.776Z,27.70
2022-11-29T07:30:19.756Z,22.10
2022-11-29T07:31:19.789Z,27.30
2022-11-29T07:32:19.721Z,21.50
2022-11-29T07:33:19.710Z,24.70
2022-11-29T07:34:19.694Z,22.20
2022-11-29T07:35:19.679Z,27.20
2022-11-29T07:36:19.680Z,27.50
2022-11-29T07:37:19.753Z,19.20
2022-11-29T07:38:19.650Z,19.30
2022-11-29T07:39:19.640Z,26.50
2022-11-29T07:40:19.926Z,26.50
2022-11-29T07:41:19.622Z,23.80
2022-11-29T07:42:19.607Z,24.80
2022-11-29T07:43:19.599Z,21.90
2022-11-29T07:44:19.590Z,23.20
2022-11-29T07:45:19.609Z,23.70
2022-11-29T07:46:19.686Z,22.50
2022-11-29T07:47:19.548Z,25.00
2022-11-29T07:48:19.538Z,19.40
2022-11-29T07:49:19.529Z,19.00
2022-11-29T07:50:19.554Z,22.40
2022-11-29T07:51:20.425Z,22.80
2022-11-29T07:52:19.598Z,19.10
2022-11-29T07:53:19.493Z,21.10
2022-11-29T07:54:19.501Z,22.70
2022-11-29T07:55:19.490Z,23.20
2022-11-29T07:56:19.944Z,21.00
2022-11-29T07:57:19.461Z,23.90
2022-11-29T07:58:19.608Z,22.60
2022-11-29T07:59:19.440Z,21.40
2022-11-29T08:00:19.431Z,24.00
2022-11-29T08:01:19.451Z,23.30
2022-11-29T08:02:19.480Z,24.10
2022-11-29T08:03:19.416Z,22.20
2022-11-29T08:04:19.383Z,22.10
2022-11-29T08:05:19.383Z,18.40
2022-11-29T08:06:19.363Z,20.10
2022-11-29T08:07:19.474Z,22.60
2022-11-29T08:08:19.324Z,18.00
2022-11-29T08:09:19.328Z,19.90
2022-11-29T08:10:19.306Z,19.30
2022-11-29T08:11:19.282Z,20.00
2022-11-29T08:12:19.286Z,17.20
2022-11-29T08:13:19.316Z,21.20
2022-11-29T08:14:19.275Z,18.80
2022-11-29T08:15:19.323Z,19.60
2022-11-29T08:16:19.364Z,23.10
2022-11-29T08:17:19.277Z,21.10
2022-11-29T08:18:19.248Z,19.00
2022-11-29T08:19:19.219Z,17.60
2022-11-29T08:20:19.213Z,21.60
2022-11-29T08:21:19.193Z,25.20
2022-11-29T08:22:19.214Z,22.60
2022-11-29T08:23:19.179Z,21.60
2022-11-29T08:24:19.165Z,20.00
2022-11-29T08:25:19.215Z,18.10
2022-11-29T08:26:19.134Z,22.30
2022-11-29T08:27:19.146Z,24.30
2022-11-29T08:28:19.132Z,22.00
2022-11-29T08:29:19.104Z,19.20
2022-11-29T08:30:19.096Z,27.00
2022-11-29T08:31:19.092Z,27.20
2022-11-29T08:32:19.084Z,25.00
2022-11-29T08:33:19.059Z,27.20
2022-11-29T08:34:19.080Z,21.50
2022-11-29T08:35:19.040Z,30.90
2022-11-29T08:36:19.063Z,25.80
2022-11-29T08:37:19.020Z,22.20
2022-11-29T08:38:19.017Z,25.80
2022-11-29T08:39:18.973Z,26.20
2022-11-29T08:40:18.988Z,24.80
2022-11-29T08:41:18.996Z,25.30
2022-11-29T08:42:18.962Z,24.00
2022-11-29T08:43:18.964Z,28.60
2022-11-29T08:44:18.943Z,28.90
2022-11-29T08:45:18.977Z,29.30
2022-11-29T08:46:19.243Z,28.10
2022-11-29T08:47:18.905Z,32.30
2022-11-29T08:48:19.014Z,34.30
2022-11-29T08:49:18.934Z,30.40
2022-11-29T08:50:19.052Z,31.60
2022-11-29T08:51:18.882Z,30.50
2022-11-29T08:52:18.883Z,28.80
2022-11-29T08:53:18.872Z,28.80
2022-11-29T08:54:18.827Z,29.20
2022-11-29T08:55:18.801Z,29.10
2022-11-29T08:58:19.783Z,35.80
2022-11-29T08:59:18.772Z,31.50
2022-11-29T09:00:18.811Z,35.00
2022-11-29T09:01:18.902Z,35.20
2022-11-29T09:02:18.816Z,35.40
2022-11-29T09:03:18.719Z,34.40
2022-11-29T09:04:18.720Z,35.10
2022-11-29T09:05:18.729Z,29.20
2022-11-29T09:06:18.735Z,31.30
2022-11-29T09:07:18.742Z,34.70
2022-11-29T09:08:18.686Z,35.40
2022-11-29T09:09:18.657Z,36.90
2022-11-29T09:10:18.656Z,32.60
2022-11-29T09:11:18.648Z,30.90
2022-11-29T09:12:18.617Z,33.70
2022-11-29T09:13:18.628Z,32.10
2022-11-29T09:14:18.622Z,34.80
2022-11-29T09:15:18.600Z,37.60
2022-11-29T09:16:18.652Z,35.80
2022-11-29T09:17:18.573Z,28.10
2022-11-29T09:18:18.565Z,34.30
2022-11-29T09:19:18.559Z,32.60
2022-11-29T09:20:18.545Z,33.90
2022-11-29T09:21:18.568Z,32.60
2022-11-29T09:22:18.556Z,34.30
2022-11-29T09:23:18.500Z,30.20
2022-11-29T09:24:18.512Z,32.00
2022-11-29T09:25:18.480Z,24.70
2022-11-29T09:26:18.507Z,26.50
2022-11-29T09:27:18.481Z,31.70
2022-11-29T09:28:18.450Z,30.30
2022-11-29T09:29:18.470Z,27.50
2022-11-29T09:30:23.481Z,27.00
2022-11-29T09:31:19.465Z,30.60
2022-11-29T09:32:18.491Z,35.20
2022-11-29T09:33:18.436Z,25.50
2022-11-29T09:34:18.394Z,29.80
2022-11-29T09:35:18.392Z,29.50
2022-11-29T09:36:18.364Z,27.60
2022-11-29T09:37:18.407Z,25.20
2022-11-29T09:38:19.194Z,29.60
2022-11-29T09:39:18.327Z,28.30
2022-11-29T09:40:18.329Z,29.80
2022-11-29T09:41:18.298Z,28.80
2022-11-29T09:42:18.335Z,27.20
2022-11-29T09:43:18.300Z,31.20
2022-11-29T09:44:18.294Z,27.60
2022-11-29T09:45:18.274Z,26.10
2022-11-29T09:46:18.374Z,28.50
2022-11-29T09:47:18.240Z,29.00
2022-11-29T09:48:18.291Z,29.00
2022-11-29T09:49:18.243Z,26.90
2022-11-29T09:50:18.219Z,31.80
2022-11-29T09:51:18.216Z,28.20
2022-11-29T09:52:18.205Z,27.20
2022-11-29T09:53:18.185Z,34.20
2022-11-29T09:54:18.470Z,33.30
2022-11-29T09:55:18.276Z,29.50
2022-11-29T09:56:18.134Z,28.70
2022-11-29T09:57:18.168Z,30.70
2022-11-29T09:58:18.138Z,27.50
2022-11-29T09:59:18.133Z,25.90
2022-11-29T10:00:18.137Z,30.00
2022-11-29T10:01:18.211Z,33.00
2022-11-29T10:02:21.422Z,31.50
2022-11-29T10:03:18.073Z,26.70
2022-11-29T10:04:18.081Z,27.90
2022-11-29T10:05:18.048Z,27.20
2022-11-29T10:06:18.910Z,32.20
2022-11-29T10:07:18.132Z,27.00
2022-11-29T10:08:18.019Z,30.20
2022-11-29T10:09:17.992Z,28.90
2022-11-29T10:10:18.095Z,29.10
2022-11-29T10:11:18.006Z,29.90
2022-11-29T10:12:17.974Z,33.50
2022-11-29T10:13:17.976Z,30.80
2022-11-29T10:14:17.958Z,28.30
2022-11-29T10:15:17.926Z,28.00
2022-11-29T10:16:18.001Z,28.80
2022-11-29T10:17:17.944Z,36.30
2022-11-29T10:18:17.923Z,31.20
2022-11-29T10:19:17.950Z,24.90
2022-11-29T10:20:18.135Z,30.60
2022-11-29T10:21:17.894Z,30.60
2022-11-29T10:22:17.885Z,27.80
2022-11-29T10:23:17.861Z,30.70
2022-11-29T10:24:17.907Z,27.40
2022-11-29T10:25:17.905Z,32.60
2022-11-29T10:26:17.867Z,29.10
2022-11-29T10:27:17.801Z,32.30
2022-11-29T10:28:17.801Z,35.50
2022-11-29T10:29:17.833Z,29.50
2022-11-29T10:30:17.936Z,32.30
2022-11-29T10:31:17.847Z,32.80
2022-11-29T10:32:17.744Z,31.40
2022-11-29T10:33:17.739Z,35.10
2022-11-29T10:34:17.734Z,36.50
2022-11-29T10:35:17.733Z,27.90
2022-11-29T10:36:17.918Z,35.10
2022-11-29T10:37:17.692Z,33.70
2022-11-29T10:38:32.992Z,36.90
2022-11-29T10:39:18.670Z,34.00
2022-11-29T10:40:17.678Z,32.70
2022-11-29T10:41:17.655Z,36.40
2022-11-29T10:42:18.527Z,31.70
2022-11-29T10:43:17.640Z,33.40
2022-11-29T10:44:17.680Z,34.10
2022-11-29T10:45:17.611Z,34.40
2022-11-29T10:46:17.665Z,45.20
2022-11-29T10:47:17.645Z,33.60
2022-11-29T10:48:18.678Z,40.70
2022-11-29T10:49:17.644Z,31.60
2022-11-29T10:50:17.605Z,39.20
2022-11-29T10:51:17.548Z,35.60
2022-11-29T10:52:17.523Z,35.20
2022-11-29T10:53:17.563Z,38.80
2022-11-29T10:54:17.526Z,36.80
2022-11-29T10:55:17.517Z,34.90
2022-11-29T10:56:17.589Z,34.20
2022-11-29T10:57:17.481Z,38.70
2022-11-29T10:58:17.525Z,34.90
2022-11-29T10:59:17.573Z,32.60
2022-11-29T11:00:17.643Z,32.50
2022-11-29T11:01:17.494Z,34.70
2022-11-29T11:02:17.415Z,37.40
2022-11-29T11:03:17.439Z,32.20
2022-11-29T11:04:17.423Z,33.30
2022-11-29T11:05:17.493Z,36.50
2022-11-29T11:06:17.439Z,34.90
2022-11-29T11:07:17.459Z,37.00
2022-11-29T11:08:17.475Z,35.00
2022-11-29T11:09:17.373Z,36.40
2022-11-29T11:10:17.345Z,35.70
2022-11-29T11:11:17.375Z,31.80
2022-11-29T11:12:17.383Z,29.10
2022-11-29T11:13:17.327Z,38.10
2022-11-29T11:14:17.314Z,36.80
2022-11-29T11:15:17.294Z,34.90
2022-11-29T11:16:17.315Z,33.90
2022-11-29T11:17:17.273Z,33.70
2022-11-29T11:18:17.264Z,36.30
2022-11-29T11:19:17.320Z,29.80
2022-11-29T11:20:17.234Z,30.90
2022-11-29T11:21:17.248Z,28.90
2022-11-29T11:22:17.226Z,29.20
2022-11-29T11:23:17.207Z,32.90
2022-11-29T11:24:17.216Z,30.40
2022-11-29T11:25:17.189Z,30.00
2022-11-29T11:26:17.159Z,31.90
2022-11-29T11:27:17.231Z,38.30
2022-11-29T11:28:17.182Z,38.10
2022-11-29T11:29:17.145Z,35.10
2022-11-29T11:30:17.172Z,35.70
2022-11-29T11:31:17.161Z,32.10
2022-11-29T11:32:17.116Z,33.70
2022-11-29T11:33:17.094Z,33.80
2022-11-29T11:34:17.101Z,30.50
2022-11-29T11:35:18.522Z,34.50
2022-11-29T11:36:17.103Z,33.20
2022-11-29T11:37:17.076Z,27.20
2022-11-29T11:38:17.031Z,35.00
2022-11-29T11:39:17.030Z,28.60
2022-11-29T11:40:17.014Z,33.70
2022-11-29T11:41:17.044Z,35.70
2022-11-29T11:42:17.003Z,31.30
2022-11-29T11:43:16.969Z,29.80
2022-11-29T11:44:45.839Z,35.80
2022-11-29T11:45:17.966Z,32.00
2022-11-29T11:46:18.264Z,33.80
2022-11-29T11:47:16.950Z,32.00
2022-11-29T11:48:16.931Z,30.60
2022-11-29T11:49:16.905Z,34.40
2022-11-29T11:50:16.926Z,33.50
2022-11-29T11:51:16.931Z,31.70
2022-11-29T11:52:16.883Z,30.60
2022-11-29T11:53:16.925Z,27.90
2022-11-29T11:54:16.848Z,29.30
2022-11-29T11:55:16.868Z,28.00
2022-11-29T11:56:16.851Z,29.60
2022-11-29T11:57:16.818Z,26.40
2022-11-29T11:58:16.887Z,22.20
2022-11-29T11:59:16.817Z,24.80
2022-11-29T12:00:18.873Z,28.40
2022-11-29T12:01:17.803Z,24.80
2022-11-29T12:02:16.854Z,23.80
2022-11-29T12:03:16.973Z,27.20
2022-11-29T12:04:16.809Z,29.80
2022-11-29T12:05:16.746Z,29.60
2022-11-29T12:06:16.734Z,25.10
2022-11-29T12:07:16.845Z,27.80
2022-11-29T12:08:16.776Z,24.30
2022-11-29T12:09:16.714Z,28.80
2022-11-29T12:10:17.426Z,29.80
2022-11-29T12:11:16.676Z,30.60
2022-11-29T12:12:16.701Z,25.50
2022-11-29T12:13:16.639Z,29.30
2022-11-29T12:14:16.740Z,23.90
2022-11-29T12:15:16.645Z,34.60
2022-11-29T12:16:16.730Z,28.30
2022-11-29T12:17:19.954Z,27.50
2022-11-29T12:18:16.722Z,24.80
2022-11-29T12:19:16.590Z,28.80
2022-11-29T12:20:16.592Z,24.70
2022-11-29T12:21:16.581Z,27.90
2022-11-29T12:22:16.558Z,28.10
2022-11-29T12:23:16.561Z,24.90
2022-11-29T12:24:16.565Z,25.10
2022-11-29T12:25:16.510Z,24.00
2022-11-29T12:26:48.539Z,22.40
2022-11-29T12:27:17.564Z,26.10
2022-11-29T12:28:20.416Z,29.20
2022-11-29T12:29:16.498Z,24.40
2022-11-29T12:30:16.465Z,25.10
2022-11-29T12:31:16.517Z,25.10
2022-11-29T12:32:16.470Z,32.30
2022-11-29T12:33:16.453Z,28.30
2022-11-29T12:34:20.945Z,28.60
2022-11-29T12:35:18.947Z,24.90
2022-11-29T12:36:16.398Z,25.10
2022-11-29T12:37:16.421Z,29.30
2022-11-29T12:38:16.393Z,33.90
2022-11-29T12:39:16.390Z,26.60
2022-11-29T12:40:16.352Z,31.90
2022-11-29T12:41:16.344Z,37.90
2022-11-29T12:42:16.347Z,25.60
2022-11-29T12:43:16.325Z,24.70
2022-11-29T12:44:16.326Z,31.20
2022-11-29T12:45:16.304Z,25.50
2022-11-29T12:46:16.373Z,25.80
2022-11-29T12:48:17.298Z,24.40
2022-11-29T12:49:16.264Z,24.20
2022-11-29T12:50:16.294Z,25.20
2022-11-29T12:51:16.254Z,27.20
2022-11-29T12:52:16.242Z,27.90
2022-11-29T12:53:16.215Z,29.10
2022-11-29T12:54:16.212Z,31.60
2022-11-29T12:55:16.223Z,26.70
2022-11-29T12:56:16.211Z,31.70
2022-11-29T12:57:16.197Z,26.10
2022-11-29T12:58:16.256Z,32.50
2022-11-29T12:59:16.154Z,27.20
2022-11-29T13:00:16.173Z,28.20